sensor_id;sensor_type;location;lat;lon;timestamp;P1;durP1;ratioP1;P2;durP2;ratioP2
21202;SDS011;10759;51.982;9.232;2023-04-25T00:00:27;14.40;;;8.07;;
21202;SDS011;10759;51.982;9.232;2023-04-25T00:02:55;17.08;;;8.82;;
21202;SDS011;10759;51.982;9.232;2023-04-25T00:05:23;13.77;;;8.57;;
21202;SDS011;10759;51.982;9.232;2023-04-25T00:07:53;21.05;;;9.10;;
21202;SDS011;10759;51.982;9.232;2023-04-25T00:10:21;16.23;;;8.05;;
21202;SDS011;10759;51.982;9.232;2023-04-25T00:12:50;11.40;;;7.88;;
21202;SDS011;10759;51.982;9.232;2023-04-25T00:15:18;13.55;;;8.23;;
21202;SDS011;10759;51.982;9.232;2023-04-25T00:17:46;14.80;;;8.63;;
21202;SDS011;10759;51.982;9.232;2023-04-25T00:20:14;14.40;;;8.95;;
21202;SDS011;10759;51.982;9.232;2023-04-25T00:22:42;15.20;;;9.52;;
21202;SDS011;10759;51.982;9.232;2023-04-25T00:25:10;14.82;;;8.45;;
21202;SDS011;10759;51.982;9.232;2023-04-25T00:27:38;15.85;;;8.63;;
21202;SDS011;10759;51.982;9.232;2023-04-25T00:30:10;17.95;;;9.52;;
21202;SDS011;10759;51.982;9.232;2023-04-25T00:32:38;15.85;;;9.00;;
21202;SDS011;10759;51.982;9.232;2023-04-25T00:35:07;17.92;;;8.95;;
21202;SDS011;10759;51.982;9.232;2023-04-25T00:37:35;13.38;;;8.43;;
21202;SDS011;10759;51.982;9.232;2023-04-25T00:40:03;16.50;;;9.65;;
21202;SDS011;10759;51.982;9.232;2023-04-25T00:42:34;13.05;;;8.25;;
21202;SDS011;10759;51.982;9.232;2023-04-25T00:45:04;13.32;;;8.85;;
21202;SDS011;10759;51.982;9.232;2023-04-25T00:47:35;12.48;;;8.52;;
21202;SDS011;10759;51.982;9.232;2023-04-25T00:50:04;21.33;;;10.25;;
21202;SDS011;10759;51.982;9.232;2023-04-25T00:52:33;14.38;;;8.15;;
21202;SDS011;10759;51.982;9.232;2023-04-25T00:55:01;15.73;;;9.30;;
21202;SDS011;10759;51.982;9.232;2023-04-25T00:57:29;13.68;;;9.45;;
21202;SDS011;10759;51.982;9.232;2023-04-25T00:59:57;13.93;;;9.70;;
21202;SDS011;10759;51.982;9.232;2023-04-25T01:02:27;15.90;;;9.32;;
21202;SDS011;10759;51.982;9.232;2023-04-25T01:04:57;13.52;;;10.23;;
21202;SDS011;10759;51.982;9.232;2023-04-25T01:07:25;17.58;;;11.27;;
21202;SDS011;10759;51.982;9.232;2023-04-25T01:09:53;13.27;;;9.55;;
21202;SDS011;10759;51.982;9.232;2023-04-25T01:12:21;18.02;;;10.50;;
21202;SDS011;10759;51.982;9.232;2023-04-25T01:14:50;16.38;;;11.05;;
21202;SDS011;10759;51.982;9.232;2023-04-25T01:17:18;15.60;;;11.55;;
21202;SDS011;10759;51.982;9.232;2023-04-25T01:19:48;16.27;;;10.60;;
21202;SDS011;10759;51.982;9.232;2023-04-25T01:22:18;19.55;;;11.32;;
21202;SDS011;10759;51.982;9.232;2023-04-25T01:24:47;13.90;;;10.77;;
21202;SDS011;10759;51.982;9.232;2023-04-25T01:27:15;12.57;;;10.30;;
21202;SDS011;10759;51.982;9.232;2023-04-25T01:29:44;18.58;;;11.82;;
21202;SDS011;10759;51.982;9.232;2023-04-25T01:32:13;18.83;;;11.63;;
21202;SDS011;10759;51.982;9.232;2023-04-25T01:34:42;19.30;;;12.10;;
21202;SDS011;10759;51.982;9.232;2023-04-25T01:37:10;15.60;;;11.73;;
21202;SDS011;10759;51.982;9.232;2023-04-25T01:39:39;13.00;;;11.65;;
21202;SDS011;10759;51.982;9.232;2023-04-25T01:42:07;14.47;;;11.97;;
21202;SDS011;10759;51.982;9.232;2023-04-25T01:44:35;16.38;;;10.50;;
21202;SDS011;10759;51.982;9.232;2023-04-25T01:47:04;15.65;;;12.30;;
21202;SDS011;10759;51.982;9.232;2023-04-25T01:49:32;20.30;;;12.40;;
21202;SDS011;10759;51.982;9.232;2023-04-25T01:52:00;12.13;;;10.93;;
21202;SDS011;10759;51.982;9.232;2023-04-25T01:54:28;15.73;;;11.32;;
21202;SDS011;10759;51.982;9.232;2023-04-25T01:56:58;16.65;;;11.77;;
21202;SDS011;10759;51.982;9.232;2023-04-25T01:59:26;14.57;;;11.43;;
21202;SDS011;10759;51.982;9.232;2023-04-25T02:02:10;13.13;;;11.93;;
21202;SDS011;10759;51.982;9.232;2023-04-25T02:04:37;13.85;;;11.13;;
21202;SDS011;10759;51.982;9.232;2023-04-25T02:07:06;17.23;;;11.73;;
21202;SDS011;10759;51.982;9.232;2023-04-25T02:09:50;13.02;;;10.32;;
21202;SDS011;10759;51.982;9.232;2023-04-25T02:12:20;11.88;;;10.65;;
21202;SDS011;10759;51.982;9.232;2023-04-25T02:15:00;13.77;;;10.73;;
21202;SDS011;10759;51.982;9.232;2023-04-25T02:17:47;11.57;;;10.48;;
21202;SDS011;10759;51.982;9.232;2023-04-25T02:20:15;11.63;;;10.57;;
21202;SDS011;10759;51.982;9.232;2023-04-25T02:22:43;13.27;;;11.35;;
21202;SDS011;10759;51.982;9.232;2023-04-25T02:25:11;12.45;;;11.25;;
21202;SDS011;10759;51.982;9.232;2023-04-25T02:27:41;12.00;;;10.80;;
21202;SDS011;10759;51.982;9.232;2023-04-25T02:30:09;15.73;;;12.07;;
21202;SDS011;10759;51.982;9.232;2023-04-25T02:32:37;11.80;;;10.52;;
21202;SDS011;10759;51.982;9.232;2023-04-25T02:35:06;11.18;;;9.90;;
21202;SDS011;10759;51.982;9.232;2023-04-25T02:37:34;11.90;;;10.68;;
21202;SDS011;10759;51.982;9.232;2023-04-25T02:40:05;11.13;;;9.13;;
21202;SDS011;10759;51.982;9.232;2023-04-25T02:42:35;11.77;;;10.50;;
21202;SDS011;10759;51.982;9.232;2023-04-25T02:45:05;10.48;;;7.90;;
21202;SDS011;10759;51.982;9.232;2023-04-25T02:47:33;11.38;;;9.43;;
21202;SDS011;10759;51.982;9.232;2023-04-25T02:50:01;13.85;;;9.23;;
21202;SDS011;10759;51.982;9.232;2023-04-25T02:52:29;10.50;;;9.45;;
21202;SDS011;10759;51.982;9.232;2023-04-25T02:55:07;12.32;;;9.15;;
21202;SDS011;10759;51.982;9.232;2023-04-25T03:00:09;10.15;;;9.15;;
21202;SDS011;10759;51.982;9.232;2023-04-25T03:02:40;10.38;;;9.35;;
21202;SDS011;10759;51.982;9.232;2023-04-25T03:05:08;9.95;;;9.05;;
21202;SDS011;10759;51.982;9.232;2023-04-25T03:07:37;10.45;;;8.98;;
21202;SDS011;10759;51.982;9.232;2023-04-25T03:10:09;11.13;;;8.82;;
21202;SDS011;10759;51.982;9.232;2023-04-25T03:12:37;10.93;;;9.80;;
21202;SDS011;10759;51.982;9.232;2023-04-25T03:15:05;12.30;;;7.15;;
21202;SDS011;10759;51.982;9.232;2023-04-25T03:17:36;13.07;;;6.60;;
21202;SDS011;10759;51.982;9.232;2023-04-25T03:20:04;13.67;;;5.90;;
21202;SDS011;10759;51.982;9.232;2023-04-25T03:22:35;12.93;;;6.20;;
21202;SDS011;10759;51.982;9.232;2023-04-25T03:25:04;14.70;;;6.13;;
21202;SDS011;10759;51.982;9.232;2023-04-25T03:27:33;22.15;;;5.82;;
21202;SDS011;10759;51.982;9.232;2023-04-25T03:30:02;15.63;;;5.88;;
21202;SDS011;10759;51.982;9.232;2023-04-25T03:32:30;17.52;;;5.88;;
21202;SDS011;10759;51.982;9.232;2023-04-25T03:34:59;16.65;;;6.20;;
21202;SDS011;10759;51.982;9.232;2023-04-25T03:37:27;13.43;;;7.47;;
21202;SDS011;10759;51.982;9.232;2023-04-25T03:39:55;20.50;;;5.63;;
21202;SDS011;10759;51.982;9.232;2023-04-25T03:42:30;15.60;;;6.18;;
21202;SDS011;10759;51.982;9.232;2023-04-25T03:44:58;15.40;;;5.75;;
21202;SDS011;10759;51.982;9.232;2023-04-25T03:47:26;18.48;;;6.10;;
21202;SDS011;10759;51.982;9.232;2023-04-25T03:49:54;19.73;;;6.22;;
21202;SDS011;10759;51.982;9.232;2023-04-25T03:52:23;16.73;;;5.95;;
21202;SDS011;10759;51.982;9.232;2023-04-25T03:54:52;15.15;;;5.90;;
21202;SDS011;10759;51.982;9.232;2023-04-25T03:57:23;14.25;;;6.05;;
21202;SDS011;10759;51.982;9.232;2023-04-25T03:59:52;16.60;;;6.25;;
21202;SDS011;10759;51.982;9.232;2023-04-25T04:02:21;14.25;;;6.30;;
21202;SDS011;10759;51.982;9.232;2023-04-25T04:04:51;17.40;;;5.95;;
21202;SDS011;10759;51.982;9.232;2023-04-25T04:07:20;21.83;;;6.97;;
21202;SDS011;10759;51.982;9.232;2023-04-25T04:09:54;19.60;;;5.80;;
21202;SDS011;10759;51.982;9.232;2023-04-25T04:12:27;17.75;;;5.95;;
21202;SDS011;10759;51.982;9.232;2023-04-25T04:14:55;16.77;;;5.78;;
21202;SDS011;10759;51.982;9.232;2023-04-25T04:17:23;18.17;;;5.55;;
21202;SDS011;10759;51.982;9.232;2023-04-25T04:19:51;13.15;;;5.90;;
21202;SDS011;10759;51.982;9.232;2023-04-25T04:22:19;15.95;;;5.70;;
21202;SDS011;10759;51.982;9.232;2023-04-25T04:24:49;16.55;;;6.72;;
21202;SDS011;10759;51.982;9.232;2023-04-25T04:27:34;23.20;;;7.22;;
21202;SDS011;10759;51.982;9.232;2023-04-25T04:30:21;14.88;;;6.40;;
21202;SDS011;10759;51.982;9.232;2023-04-25T04:32:55;20.70;;;6.07;;
21202;SDS011;10759;51.982;9.232;2023-04-25T04:35:24;18.63;;;7.22;;
21202;SDS011;10759;51.982;9.232;2023-04-25T04:37:52;21.45;;;6.50;;
21202;SDS011;10759;51.982;9.232;2023-04-25T04:40:23;22.13;;;6.72;;
21202;SDS011;10759;51.982;9.232;2023-04-25T04:43:12;18.08;;;6.85;;
21202;SDS011;10759;51.982;9.232;2023-04-25T04:46:07;18.50;;;6.68;;
21202;SDS011;10759;51.982;9.232;2023-04-25T04:49:09;18.67;;;6.75;;
21202;SDS011;10759;51.982;9.232;2023-04-25T04:51:55;17.85;;;7.35;;
21202;SDS011;10759;51.982;9.232;2023-04-25T04:54:34;21.65;;;5.95;;
21202;SDS011;10759;51.982;9.232;2023-04-25T04:57:26;22.50;;;5.72;;
21202;SDS011;10759;51.982;9.232;2023-04-25T05:00:17;17.50;;;5.47;;
21202;SDS011;10759;51.982;9.232;2023-04-25T05:03:07;17.60;;;5.68;;
21202;SDS011;10759;51.982;9.232;2023-04-25T05:05:56;21.60;;;6.55;;
21202;SDS011;10759;51.982;9.232;2023-04-25T05:08:50;14.63;;;5.65;;
21202;SDS011;10759;51.982;9.232;2023-04-25T05:11:35;17.02;;;5.78;;
21202;SDS011;10759;51.982;9.232;2023-04-25T05:14:12;16.15;;;5.57;;
21202;SDS011;10759;51.982;9.232;2023-04-25T05:16:57;15.98;;;5.53;;
21202;SDS011;10759;51.982;9.232;2023-04-25T05:19:40;17.02;;;5.65;;
21202;SDS011;10759;51.982;9.232;2023-04-25T05:22:22;13.85;;;6.35;;
21202;SDS011;10759;51.982;9.232;2023-04-25T05:25:08;22.52;;;5.85;;
21202;SDS011;10759;51.982;9.232;2023-04-25T05:27:55;15.60;;;5.60;;
21202;SDS011;10759;51.982;9.232;2023-04-25T05:30:40;17.27;;;6.30;;
21202;SDS011;10759;51.982;9.232;2023-04-25T05:33:15;14.73;;;5.53;;
21202;SDS011;10759;51.982;9.232;2023-04-25T05:35:44;18.33;;;6.07;;
21202;SDS011;10759;51.982;9.232;2023-04-25T05:38:13;18.05;;;6.00;;
21202;SDS011;10759;51.982;9.232;2023-04-25T05:40:59;17.00;;;5.00;;
21202;SDS011;10759;51.982;9.232;2023-04-25T05:44:05;15.88;;;5.28;;
21202;SDS011;10759;51.982;9.232;2023-04-25T05:46:48;16.70;;;5.78;;
21202;SDS011;10759;51.982;9.232;2023-04-25T05:49:28;18.65;;;6.13;;
21202;SDS011;10759;51.982;9.232;2023-04-25T05:51:58;19.80;;;4.82;;
21202;SDS011;10759;51.982;9.232;2023-04-25T05:54:41;14.38;;;5.00;;
21202;SDS011;10759;51.982;9.232;2023-04-25T05:57:17;25.27;;;6.57;;
21202;SDS011;10759;51.982;9.232;2023-04-25T05:59:47;22.30;;;6.13;;
21202;SDS011;10759;51.982;9.232;2023-04-25T06:02:15;21.02;;;6.07;;
21202;SDS011;10759;51.982;9.232;2023-04-25T06:04:46;16.42;;;5.82;;
21202;SDS011;10759;51.982;9.232;2023-04-25T06:07:14;15.88;;;5.15;;
21202;SDS011;10759;51.982;9.232;2023-04-25T06:09:42;13.75;;;5.55;;
21202;SDS011;10759;51.982;9.232;2023-04-25T06:12:10;15.52;;;4.63;;
21202;SDS011;10759;51.982;9.232;2023-04-25T06:14:38;17.20;;;6.43;;
21202;SDS011;10759;51.982;9.232;2023-04-25T06:17:06;12.15;;;5.18;;
21202;SDS011;10759;51.982;9.232;2023-04-25T06:19:34;17.48;;;5.88;;
21202;SDS011;10759;51.982;9.232;2023-04-25T06:22:04;18.05;;;5.50;;
21202;SDS011;10759;51.982;9.232;2023-04-25T06:24:37;23.65;;;6.05;;
21202;SDS011;10759;51.982;9.232;2023-04-25T06:27:06;16.45;;;5.35;;
21202;SDS011;10759;51.982;9.232;2023-04-25T06:29:34;25.40;;;6.00;;
21202;SDS011;10759;51.982;9.232;2023-04-25T06:32:01;19.08;;;6.10;;
21202;SDS011;10759;51.982;9.232;2023-04-25T06:34:30;14.32;;;5.80;;
21202;SDS011;10759;51.982;9.232;2023-04-25T06:36:58;14.20;;;4.93;;
21202;SDS011;10759;51.982;9.232;2023-04-25T06:39:28;18.55;;;5.43;;
21202;SDS011;10759;51.982;9.232;2023-04-25T06:41:55;18.50;;;5.68;;
21202;SDS011;10759;51.982;9.232;2023-04-25T06:44:40;12.77;;;5.55;;
21202;SDS011;10759;51.982;9.232;2023-04-25T06:47:09;14.70;;;4.90;;
21202;SDS011;10759;51.982;9.232;2023-04-25T06:49:38;16.63;;;4.57;;
21202;SDS011;10759;51.982;9.232;2023-04-25T06:52:07;18.30;;;5.13;;
21202;SDS011;10759;51.982;9.232;2023-04-25T06:54:39;11.50;;;4.47;;
21202;SDS011;10759;51.982;9.232;2023-04-25T06:57:18;19.83;;;5.18;;
21202;SDS011;10759;51.982;9.232;2023-04-25T06:59:46;15.73;;;4.40;;
21202;SDS011;10759;51.982;9.232;2023-04-25T07:02:15;14.35;;;4.95;;
21202;SDS011;10759;51.982;9.232;2023-04-25T07:04:43;15.85;;;4.82;;
21202;SDS011;10759;51.982;9.232;2023-04-25T07:07:13;13.23;;;4.35;;
21202;SDS011;10759;51.982;9.232;2023-04-25T07:09:49;15.25;;;4.93;;
21202;SDS011;10759;51.982;9.232;2023-04-25T07:12:17;15.20;;;4.78;;
21202;SDS011;10759;51.982;9.232;2023-04-25T07:14:44;9.75;;;4.75;;
21202;SDS011;10759;51.982;9.232;2023-04-25T07:17:12;16.05;;;5.18;;
21202;SDS011;10759;51.982;9.232;2023-04-25T07:19:42;15.52;;;5.90;;
21202;SDS011;10759;51.982;9.232;2023-04-25T07:22:10;17.63;;;5.22;;
21202;SDS011;10759;51.982;9.232;2023-04-25T07:24:41;13.75;;;4.70;;
21202;SDS011;10759;51.982;9.232;2023-04-25T07:27:13;16.45;;;4.50;;
21202;SDS011;10759;51.982;9.232;2023-04-25T07:29:50;12.88;;;5.20;;
21202;SDS011;10759;51.982;9.232;2023-04-25T07:32:21;14.63;;;5.13;;
21202;SDS011;10759;51.982;9.232;2023-04-25T07:34:49;13.88;;;4.80;;
21202;SDS011;10759;51.982;9.232;2023-04-25T07:37:17;16.75;;;4.63;;
21202;SDS011;10759;51.982;9.232;2023-04-25T07:39:59;14.43;;;4.35;;
21202;SDS011;10759;51.982;9.232;2023-04-25T07:42:28;17.48;;;4.28;;
21202;SDS011;10759;51.982;9.232;2023-04-25T07:44:56;13.40;;;4.37;;
21202;SDS011;10759;51.982;9.232;2023-04-25T07:47:24;9.48;;;4.63;;
21202;SDS011;10759;51.982;9.232;2023-04-25T07:49:52;12.07;;;3.97;;
21202;SDS011;10759;51.982;9.232;2023-04-25T07:52:20;13.80;;;4.28;;
21202;SDS011;10759;51.982;9.232;2023-04-25T07:54:54;15.55;;;4.65;;
21202;SDS011;10759;51.982;9.232;2023-04-25T07:57:31;16.10;;;5.07;;
21202;SDS011;10759;51.982;9.232;2023-04-25T08:00:01;17.83;;;4.72;;
21202;SDS011;10759;51.982;9.232;2023-04-25T08:02:39;14.02;;;4.68;;
21202;SDS011;10759;51.982;9.232;2023-04-25T08:05:11;13.70;;;4.00;;
21202;SDS011;10759;51.982;9.232;2023-04-25T08:07:48;15.45;;;4.57;;
21202;SDS011;10759;51.982;9.232;2023-04-25T08:10:16;14.98;;;4.30;;
21202;SDS011;10759;51.982;9.232;2023-04-25T08:15:15;8.82;;;3.53;;
21202;SDS011;10759;51.982;9.232;2023-04-25T08:17:43;8.82;;;3.83;;
21202;SDS011;10759;51.982;9.232;2023-04-25T08:20:12;15.77;;;4.45;;
21202;SDS011;10759;51.982;9.232;2023-04-25T08:22:41;17.27;;;3.65;;
21202;SDS011;10759;51.982;9.232;2023-04-25T08:25:25;15.18;;;4.13;;
21202;SDS011;10759;51.982;9.232;2023-04-25T08:27:55;18.95;;;5.15;;
21202;SDS011;10759;51.982;9.232;2023-04-25T08:30:24;10.85;;;3.97;;
21202;SDS011;10759;51.982;9.232;2023-04-25T08:32:53;16.08;;;4.68;;
21202;SDS011;10759;51.982;9.232;2023-04-25T08:35:32;13.30;;;3.80;;
21202;SDS011;10759;51.982;9.232;2023-04-25T08:38:01;14.48;;;3.33;;
21202;SDS011;10759;51.982;9.232;2023-04-25T08:40:29;12.82;;;3.42;;
21202;SDS011;10759;51.982;9.232;2023-04-25T08:43:10;14.00;;;3.80;;
21202;SDS011;10759;51.982;9.232;2023-04-25T08:45:41;12.32;;;3.20;;
21202;SDS011;10759;51.982;9.232;2023-04-25T08:48:16;11.80;;;3.90;;
21202;SDS011;10759;51.982;9.232;2023-04-25T08:50:45;13.03;;;2.93;;
21202;SDS011;10759;51.982;9.232;2023-04-25T08:53:25;11.20;;;3.90;;
21202;SDS011;10759;51.982;9.232;2023-04-25T08:55:59;9.65;;;3.72;;
21202;SDS011;10759;51.982;9.232;2023-04-25T08:58:34;9.80;;;3.05;;
21202;SDS011;10759;51.982;9.232;2023-04-25T09:01:03;7.10;;;3.00;;
21202;SDS011;10759;51.982;9.232;2023-04-25T09:03:39;6.78;;;2.97;;
21202;SDS011;10759;51.982;9.232;2023-04-25T09:06:07;7.40;;;3.53;;
21202;SDS011;10759;51.982;9.232;2023-04-25T09:11:06;8.48;;;3.00;;
21202;SDS011;10759;51.982;9.232;2023-04-25T09:13:37;9.23;;;3.10;;
21202;SDS011;10759;51.982;9.232;2023-04-25T09:16:22;6.50;;;3.08;;
21202;SDS011;10759;51.982;9.232;2023-04-25T09:19:20;8.07;;;2.78;;
21202;SDS011;10759;51.982;9.232;2023-04-25T09:22:11;9.73;;;2.67;;
21202;SDS011;10759;51.982;9.232;2023-04-25T09:24:40;7.85;;;3.70;;
21202;SDS011;10759;51.982;9.232;2023-04-25T09:27:10;9.48;;;3.08;;
21202;SDS011;10759;51.982;9.232;2023-04-25T09:29:41;6.20;;;2.58;;
21202;SDS011;10759;51.982;9.232;2023-04-25T09:32:11;8.23;;;3.47;;
21202;SDS011;10759;51.982;9.232;2023-04-25T09:34:43;5.85;;;2.65;;
21202;SDS011;10759;51.982;9.232;2023-04-25T09:37:19;9.80;;;2.78;;
21202;SDS011;10759;51.982;9.232;2023-04-25T09:40:07;10.45;;;2.55;;
21202;SDS011;10759;51.982;9.232;2023-04-25T09:42:54;4.95;;;2.00;;
21202;SDS011;10759;51.982;9.232;2023-04-25T09:45:25;6.70;;;2.78;;
21202;SDS011;10759;51.982;9.232;2023-04-25T09:47:55;7.63;;;2.67;;
21202;SDS011;10759;51.982;9.232;2023-04-25T09:50:28;6.30;;;2.30;;
21202;SDS011;10759;51.982;9.232;2023-04-25T09:53:06;9.10;;;3.28;;
21202;SDS011;10759;51.982;9.232;2023-04-25T09:55:54;7.80;;;2.67;;
21202;SDS011;10759;51.982;9.232;2023-04-25T09:58:25;7.70;;;2.78;;
21202;SDS011;10759;51.982;9.232;2023-04-25T10:01:01;9.05;;;3.33;;
21202;SDS011;10759;51.982;9.232;2023-04-25T10:03:40;11.77;;;2.90;;
21202;SDS011;10759;51.982;9.232;2023-04-25T10:06:22;9.10;;;3.22;;
21202;SDS011;10759;51.982;9.232;2023-04-25T10:11:22;6.72;;;3.00;;
21202;SDS011;10759;51.982;9.232;2023-04-25T10:13:52;10.32;;;2.92;;
21202;SDS011;10759;51.982;9.232;2023-04-25T10:16:21;8.95;;;2.90;;
21202;SDS011;10759;51.982;9.232;2023-04-25T10:18:50;6.47;;;3.28;;
21202;SDS011;10759;51.982;9.232;2023-04-25T10:21:19;10.35;;;2.90;;
21202;SDS011;10759;51.982;9.232;2023-04-25T10:23:49;9.88;;;2.70;;
21202;SDS011;10759;51.982;9.232;2023-04-25T10:26:17;9.32;;;2.65;;
21202;SDS011;10759;51.982;9.232;2023-04-25T10:28:57;7.88;;;2.80;;
21202;SDS011;10759;51.982;9.232;2023-04-25T10:31:28;8.18;;;2.53;;
21202;SDS011;10759;51.982;9.232;2023-04-25T10:33:59;7.70;;;2.80;;
21202;SDS011;10759;51.982;9.232;2023-04-25T10:36:27;7.93;;;2.75;;
21202;SDS011;10759;51.982;9.232;2023-04-25T10:39:02;6.82;;;2.72;;
21202;SDS011;10759;51.982;9.232;2023-04-25T10:41:45;8.23;;;3.30;;
21202;SDS011;10759;51.982;9.232;2023-04-25T10:44:13;7.65;;;3.08;;
21202;SDS011;10759;51.982;9.232;2023-04-25T10:46:44;6.95;;;2.53;;
21202;SDS011;10759;51.982;9.232;2023-04-25T10:49:28;9.18;;;2.95;;
21202;SDS011;10759;51.982;9.232;2023-04-25T10:54:56;12.63;;;2.58;;
21202;SDS011;10759;51.982;9.232;2023-04-25T10:57:27;8.32;;;3.58;;
21202;SDS011;10759;51.982;9.232;2023-04-25T10:59:59;8.90;;;2.92;;
21202;SDS011;10759;51.982;9.232;2023-04-25T11:02:33;7.85;;;2.75;;
21202;SDS011;10759;51.982;9.232;2023-04-25T11:05:06;6.50;;;2.85;;
21202;SDS011;10759;51.982;9.232;2023-04-25T11:07:37;5.72;;;2.85;;
21202;SDS011;10759;51.982;9.232;2023-04-25T11:10:06;5.70;;;2.08;;
21202;SDS011;10759;51.982;9.232;2023-04-25T11:12:34;9.50;;;3.03;;
21202;SDS011;10759;51.982;9.232;2023-04-25T11:15:03;7.22;;;3.47;;
21202;SDS011;10759;51.982;9.232;2023-04-25T11:17:33;11.07;;;3.17;;
21202;SDS011;10759;51.982;9.232;2023-04-25T11:20:02;6.60;;;2.28;;
21202;SDS011;10759;51.982;9.232;2023-04-25T11:22:34;5.28;;;2.33;;
21202;SDS011;10759;51.982;9.232;2023-04-25T11:25:05;7.32;;;2.17;;
21202;SDS011;10759;51.982;9.232;2023-04-25T11:27:34;3.05;;;1.80;;
21202;SDS011;10759;51.982;9.232;2023-04-25T11:30:14;6.53;;;2.08;;
21202;SDS011;10759;51.982;9.232;2023-04-25T11:32:44;5.93;;;2.30;;
21202;SDS011;10759;51.982;9.232;2023-04-25T11:35:12;5.82;;;2.13;;
21202;SDS011;10759;51.982;9.232;2023-04-25T11:37:41;10.63;;;3.75;;
21202;SDS011;10759;51.982;9.232;2023-04-25T11:40:10;4.32;;;2.17;;
21202;SDS011;10759;51.982;9.232;2023-04-25T11:42:39;6.05;;;2.90;;
21202;SDS011;10759;51.982;9.232;2023-04-25T11:45:11;3.45;;;1.85;;
21202;SDS011;10759;51.982;9.232;2023-04-25T11:47:39;7.07;;;2.70;;
21202;SDS011;10759;51.982;9.232;2023-04-25T11:50:09;4.45;;;2.30;;
21202;SDS011;10759;51.982;9.232;2023-04-25T11:57:51;3.95;;;1.90;;
21202;SDS011;10759;51.982;9.232;2023-04-25T12:00:19;6.78;;;2.88;;
21202;SDS011;10759;51.982;9.232;2023-04-25T12:02:51;5.63;;;2.05;;
21202;SDS011;10759;51.982;9.232;2023-04-25T12:05:23;6.78;;;2.20;;
21202;SDS011;10759;51.982;9.232;2023-04-25T12:08:09;5.90;;;2.05;;
21202;SDS011;10759;51.982;9.232;2023-04-25T12:10:39;9.48;;;2.78;;
21202;SDS011;10759;51.982;9.232;2023-04-25T12:13:20;4.55;;;2.22;;
21202;SDS011;10759;51.982;9.232;2023-04-25T12:15:49;5.30;;;2.50;;
21202;SDS011;10759;51.982;9.232;2023-04-25T12:18:18;4.47;;;2.13;;
21202;SDS011;10759;51.982;9.232;2023-04-25T12:20:48;6.95;;;2.03;;
21202;SDS011;10759;51.982;9.232;2023-04-25T12:23:16;5.40;;;2.10;;
21202;SDS011;10759;51.982;9.232;2023-04-25T12:25:44;9.00;;;2.67;;
21202;SDS011;10759;51.982;9.232;2023-04-25T12:28:14;6.72;;;2.30;;
21202;SDS011;10759;51.982;9.232;2023-04-25T12:30:57;4.20;;;2.00;;
21202;SDS011;10759;51.982;9.232;2023-04-25T12:33:27;6.75;;;2.50;;
21202;SDS011;10759;51.982;9.232;2023-04-25T12:35:57;4.40;;;2.22;;
21202;SDS011;10759;51.982;9.232;2023-04-25T12:38:28;5.55;;;2.45;;
21202;SDS011;10759;51.982;9.232;2023-04-25T12:40:57;2.92;;;1.80;;
21202;SDS011;10759;51.982;9.232;2023-04-25T12:43:26;4.43;;;2.10;;
21202;SDS011;10759;51.982;9.232;2023-04-25T12:45:54;3.38;;;1.73;;
21202;SDS011;10759;51.982;9.232;2023-04-25T12:48:23;7.03;;;1.98;;
21202;SDS011;10759;51.982;9.232;2023-04-25T12:50:51;4.45;;;1.95;;
21202;SDS011;10759;51.982;9.232;2023-04-25T12:53:21;4.93;;;1.73;;
21202;SDS011;10759;51.982;9.232;2023-04-25T12:55:50;2.17;;;1.88;;
21202;SDS011;10759;51.982;9.232;2023-04-25T12:58:18;5.00;;;2.42;;
21202;SDS011;10759;51.982;9.232;2023-04-25T13:00:46;4.78;;;2.42;;
21202;SDS011;10759;51.982;9.232;2023-04-25T13:03:14;5.20;;;1.95;;
21202;SDS011;10759;51.982;9.232;2023-04-25T13:05:43;6.78;;;2.22;;
21202;SDS011;10759;51.982;9.232;2023-04-25T13:08:10;6.47;;;2.10;;
21202;SDS011;10759;51.982;9.232;2023-04-25T13:10:40;5.63;;;1.80;;
21202;SDS011;10759;51.982;9.232;2023-04-25T13:13:08;6.57;;;2.10;;
21202;SDS011;10759;51.982;9.232;2023-04-25T13:15:36;4.93;;;1.92;;
21202;SDS011;10759;51.982;9.232;2023-04-25T13:18:04;5.43;;;1.83;;
21202;SDS011;10759;51.982;9.232;2023-04-25T13:20:33;7.35;;;1.92;;
21202;SDS011;10759;51.982;9.232;2023-04-25T13:23:01;4.75;;;1.63;;
21202;SDS011;10759;51.982;9.232;2023-04-25T13:25:29;5.55;;;1.75;;
21202;SDS011;10759;51.982;9.232;2023-04-25T13:27:58;4.93;;;1.52;;
21202;SDS011;10759;51.982;9.232;2023-04-25T13:30:26;2.40;;;1.65;;
21202;SDS011;10759;51.982;9.232;2023-04-25T13:32:54;4.03;;;1.42;;
21202;SDS011;10759;51.982;9.232;2023-04-25T13:35:23;3.45;;;1.60;;
21202;SDS011;10759;51.982;9.232;2023-04-25T13:37:52;7.30;;;2.38;;
21202;SDS011;10759;51.982;9.232;2023-04-25T13:40:19;2.88;;;2.03;;
21202;SDS011;10759;51.982;9.232;2023-04-25T13:42:50;5.00;;;1.95;;
21202;SDS011;10759;51.982;9.232;2023-04-25T13:45:20;3.92;;;1.90;;
21202;SDS011;10759;51.982;9.232;2023-04-25T13:47:48;4.60;;;2.13;;
21202;SDS011;10759;51.982;9.232;2023-04-25T13:50:16;4.55;;;1.98;;
21202;SDS011;10759;51.982;9.232;2023-04-25T13:52:44;4.15;;;2.85;;
21202;SDS011;10759;51.982;9.232;2023-04-25T13:55:12;4.82;;;2.28;;
21202;SDS011;10759;51.982;9.232;2023-04-25T13:57:40;4.05;;;2.40;;
21202;SDS011;10759;51.982;9.232;2023-04-25T14:00:08;3.53;;;1.85;;
21202;SDS011;10759;51.982;9.232;2023-04-25T14:02:38;3.08;;;2.33;;
21202;SDS011;10759;51.982;9.232;2023-04-25T14:05:07;4.20;;;1.87;;
21202;SDS011;10759;51.982;9.232;2023-04-25T14:07:36;6.10;;;2.35;;
21202;SDS011;10759;51.982;9.232;2023-04-25T14:10:04;6.18;;;2.83;;
21202;SDS011;10759;51.982;9.232;2023-04-25T14:12:33;7.10;;;3.13;;
21202;SDS011;10759;51.982;9.232;2023-04-25T14:15:01;4.32;;;1.90;;
21202;SDS011;10759;51.982;9.232;2023-04-25T14:17:29;4.40;;;2.67;;
21202;SDS011;10759;51.982;9.232;2023-04-25T14:19:59;8.30;;;2.50;;
21202;SDS011;10759;51.982;9.232;2023-04-25T14:22:27;8.57;;;2.97;;
21202;SDS011;10759;51.982;9.232;2023-04-25T14:24:55;4.15;;;2.20;;
21202;SDS011;10759;51.982;9.232;2023-04-25T14:27:23;2.85;;;1.83;;
21202;SDS011;10759;51.982;9.232;2023-04-25T14:29:54;3.50;;;2.80;;
21202;SDS011;10759;51.982;9.232;2023-04-25T14:32:22;3.15;;;2.30;;
21202;SDS011;10759;51.982;9.232;2023-04-25T14:34:50;3.88;;;1.85;;
21202;SDS011;10759;51.982;9.232;2023-04-25T14:37:19;7.07;;;2.42;;
21202;SDS011;10759;51.982;9.232;2023-04-25T14:39:48;4.70;;;2.35;;
21202;SDS011;10759;51.982;9.232;2023-04-25T14:42:16;4.85;;;1.95;;
21202;SDS011;10759;51.982;9.232;2023-04-25T14:44:43;2.40;;;1.50;;
21202;SDS011;10759;51.982;9.232;2023-04-25T14:47:12;2.70;;;1.60;;
21202;SDS011;10759;51.982;9.232;2023-04-25T14:49:40;2.25;;;1.63;;
21202;SDS011;10759;51.982;9.232;2023-04-25T14:52:08;1.95;;;1.35;;
21202;SDS011;10759;51.982;9.232;2023-04-25T14:54:37;3.22;;;1.33;;
21202;SDS011;10759;51.982;9.232;2023-04-25T14:57:05;2.97;;;1.60;;
21202;SDS011;10759;51.982;9.232;2023-04-25T14:59:33;1.65;;;1.30;;
21202;SDS011;10759;51.982;9.232;2023-04-25T15:02:01;4.28;;;1.58;;
21202;SDS011;10759;51.982;9.232;2023-04-25T15:04:30;3.10;;;1.50;;
21202;SDS011;10759;51.982;9.232;2023-04-25T15:06:58;3.67;;;1.70;;
21202;SDS011;10759;51.982;9.232;2023-04-25T15:09:26;3.17;;;1.30;;
21202;SDS011;10759;51.982;9.232;2023-04-25T15:11:56;1.92;;;1.70;;
21202;SDS011;10759;51.982;9.232;2023-04-25T15:14:24;6.88;;;2.35;;
21202;SDS011;10759;51.982;9.232;2023-04-25T15:16:52;3.80;;;1.45;;
21202;SDS011;10759;51.982;9.232;2023-04-25T15:19:20;2.30;;;1.48;;
21202;SDS011;10759;51.982;9.232;2023-04-25T15:21:48;5.47;;;3.25;;